Time;durP1;ratioP1;P1;durP2;ratioP2;P2;SDS_P1;SDS_P2;PMS_P1;PMS_P2;Temp;Humidity;BMP_temperature;BMP_pressure;BME280_temperature;BME280_humidity;BME280_pressure;Samples;Min_cycle;Max_cycle;Signal;HPM_P1;HPM_P2
2023/03/01 00:02:56;;;;;;;21.55;14.13;;;;;;;-0.32;100.00;103236.38;10380717;28;20386;-70
2023/03/01 00:07:56;;;;;;;21.13;15.23;;;;;;;-0.41;100.00;103230.59;10363493;28;20054;-70
2023/03/01 00:12:57;;;;;;;16.30;13.27;;;;;;;-0.40;100.00;103230.50;10381567;28;20030;-70
2023/03/01 00:17:57;;;;;;;24.20;12.90;;;;;;;-0.40;100.00;103222.53;10381682;28;20037;-70
2023/03/01 00:22:57;;;;;;;25.77;13.93;;;;;;;-0.43;100.00;103224.47;10380932;28;20124;-70
2023/03/01 00:27:58;;;;;;;14.77;12.40;;;;;;;-0.42;100.00;103215.53;10379796;28;20117;-70
2023/03/01 00:32:58;;;;;;;15.55;12.57;;;;;;;-0.47;100.00;103216.59;10380418;28;20563;-70
2023/03/01 00:37:59;;;;;;;20.60;14.48;;;;;;;-0.62;100.00;103209.31;10386177;28;20038;-70
2023/03/01 00:42:59;;;;;;;18.23;13.35;;;;;;;-0.73;100.00;103212.44;10379076;28;20116;-70
2023/03/01 00:48:00;;;;;;;20.30;14.52;;;;;;;-0.87;100.00;103206.84;10379894;28;20084;-70
2023/03/01 00:53:00;;;;;;;20.25;13.15;;;;;;;-1.09;100.00;103217.53;10362281;28;20388;-70
2023/03/01 00:58:00;;;;;;;17.38;12.68;;;;;;;-1.23;100.00;103212.81;10378242;28;20041;-70
2023/03/01 01:03:01;;;;;;;19.85;12.32;;;;;;;-1.35;100.00;103215.13;10378708;28;20472;-70
2023/03/01 01:08:01;;;;;;;20.67;14.75;;;;;;;-1.45;100.00;103206.66;10384689;28;20493;-70
2023/03/01 01:13:02;;;;;;;18.42;14.38;;;;;;;-1.42;100.00;103209.19;10378882;28;20041;-70
2023/03/01 01:18:02;;;;;;;16.10;13.57;;;;;;;-1.45;100.00;103207.50;10378958;28;20054;-70
2023/03/01 01:23:05;;;;;;;16.80;13.77;;;;;;;-1.47;100.00;103203.19;10377552;28;20029;-69
2023/03/01 01:28:05;;;;;;;18.73;16.77;;;;;;;-1.42;100.00;103193.25;10378633;28;20388;-70
2023/03/01 01:33:05;;;;;;;18.73;16.73;;;;;;;-1.12;100.00;103184.91;10376437;28;20042;-70
2023/03/01 01:38:06;;;;;;;20.23;16.23;;;;;;;-0.99;100.00;103171.03;10378335;28;20041;-69
2023/03/01 01:43:19;;;;;;;18.73;16.67;;;;;;;-1.04;100.00;103161.53;10377422;28;20045;-69
2023/03/01 01:48:21;;;;;;;25.48;16.85;;;;;;;-0.94;100.00;103165.50;10377085;28;20033;-70
2023/03/01 01:53:22;;;;;;;18.77;16.55;;;;;;;-0.97;100.00;103158.50;10376493;28;20037;-69
2023/03/01 01:58:22;;;;;;;24.75;19.27;;;;;;;-1.00;100.00;103149.81;10375996;28;20033;-70
2023/03/01 02:03:28;;;;;;;33.20;20.73;;;;;;;-0.94;100.00;103142.41;10359431;28;20046;-70
2023/03/01 02:08:30;;;;;;;27.35;19.10;;;;;;;-0.92;100.00;103142.38;10377025;28;20049;-70
2023/03/01 02:13:32;;;;;;;29.20;19.65;;;;;;;-0.95;100.00;103140.72;10375133;28;20041;-70
2023/03/01 02:18:32;;;;;;;24.48;19.02;;;;;;;-0.92;100.00;103142.38;10359301;28;20393;-70
2023/03/01 02:23:32;;;;;;;31.02;19.10;;;;;;;-0.91;100.00;103129.94;10376278;28;20049;-70
2023/03/01 02:28:36;;;;;;;32.58;21.67;;;;;;;-1.04;100.00;103119.84;10376192;28;20096;-69
2023/03/01 02:33:37;;;;;;;26.02;20.30;;;;;;;-1.04;100.00;103132.28;10374406;28;20026;-70
2023/03/01 02:38:38;;;;;;;31.25;22.17;;;;;;;-0.97;100.00;103133.72;10375754;28;20026;-69
2023/03/01 02:43:38;;;;;;;33.55;23.20;;;;;;;-0.97;100.00;103128.41;10376979;28;20029;-70
2023/03/01 02:48:41;;;;;;;31.85;21.77;;;;;;;-0.89;100.00;103125.38;10375449;28;20058;-70
2023/03/01 02:53:52;;;;;;;36.55;23.40;;;;;;;-0.92;100.00;103120.25;10375443;28;20037;-70
2023/03/01 02:58:52;;;;;;;37.50;23.55;;;;;;;-1.02;100.00;103114.44;10374056;28;20486;-70
2023/03/01 03:03:53;;;;;;;30.40;21.08;;;;;;;-1.17;100.00;103108.88;10373330;28;20096;-70
2023/03/01 03:08:54;;;;;;;31.13;22.38;;;;;;;-1.23;100.00;103103.81;10375002;28;20140;-70
2023/03/01 03:13:54;;;;;;;34.15;20.65;;;;;;;-1.31;100.00;103103.31;10373393;28;20389;-69
2023/03/01 03:18:55;;;;;;;28.90;21.33;;;;;;;-1.21;100.00;103101.97;10374868;28;20030;-69
2023/03/01 03:23:55;;;;;;;28.45;22.98;;;;;;;-1.33;100.00;103093.66;10373601;28;20045;-70
2023/03/01 03:28:56;;;;;;;31.55;21.80;;;;;;;-1.38;100.00;103087.66;10374394;28;20430;-69
2023/03/01 03:33:58;;;;;;;38.20;25.80;;;;;;;-1.26;100.00;103082.69;10373636;28;20393;-69
2023/03/01 03:38:59;;;;;;;36.17;23.02;;;;;;;-1.29;100.00;103088.13;10372741;28;20026;-70
2023/03/01 03:43:59;;;;;;;33.45;24.15;;;;;;;-1.34;100.00;103086.59;10373983;28;20034;-70
2023/03/01 03:48:59;;;;;;;29.20;23.05;;;;;;;-1.23;100.00;103084.34;10374150;28;20064;-70
2023/03/01 03:54:00;;;;;;;36.95;25.38;;;;;;;-1.21;100.00;103087.81;10373767;28;20035;-69
2023/03/01 03:59:00;;;;;;;39.95;24.63;;;;;;;-1.23;100.00;103087.88;10373779;28;20510;-69
2023/03/01 04:04:03;;;;;;;39.97;29.25;;;;;;;-1.26;100.00;103082.69;10373135;28;20096;-70
2023/03/01 04:09:04;;;;;;;41.47;27.25;;;;;;;-1.17;100.00;103082.28;10373781;28;20049;-69
2023/03/01 04:14:04;;;;;;;43.85;29.77;;;;;;;-1.20;100.00;103081.56;10372281;28;20385;-70
2023/03/01 04:19:06;;;;;;;44.33;29.50;;;;;;;-1.23;100.00;103073.72;10373173;28;20089;-70
2023/03/01 04:24:06;;;;;;;46.15;31.23;;;;;;;-1.21;100.00;103072.72;10355849;28;20121;-69
2023/03/01 04:29:07;;;;;;;47.92;31.25;;;;;;;-1.21;100.00;103075.38;10372436;28;20378;-69
2023/03/01 04:34:07;;;;;;;42.08;28.45;;;;;;;-1.17;100.00;103074.31;10373835;28;20034;-70
2023/03/01 04:39:11;;;;;;;42.13;31.05;;;;;;;-1.17;100.00;103078.78;10379606;28;20449;-69
2023/03/01 04:44:12;;;;;;;48.05;26.05;;;;;;;-1.17;100.00;103068.13;10379362;28;20056;-69
2023/03/01 04:49:12;;;;;;;35.45;24.42;;;;;;;-1.15;100.00;103058.28;10384970;28;20040;-69
2023/03/01 04:54:13;;;;;;;31.25;23.50;;;;;;;-1.06;100.00;103049.88;10379987;28;20044;-69
2023/03/01 04:59:13;;;;;;;41.22;26.35;;;;;;;-1.01;100.00;103036.41;10378561;28;20072;-70
2023/03/01 05:04:14;;;;;;;28.77;22.35;;;;;;;-1.04;100.00;103032.09;10377693;28;20042;-69
2023/03/01 05:09:14;;;;;;;36.42;25.73;;;;;;;-1.01;100.00;103031.09;10361694;28;20069;-70
2023/03/01 05:14:15;;;;;;;29.75;24.15;;;;;;;-1.00;100.00;103032.81;10379344;28;20054;-69
2023/03/01 05:19:15;;;;;;;37.65;24.08;;;;;;;-1.04;100.00;103031.22;10385198;28;20030;-70
2023/03/01 05:24:15;;;;;;;29.35;25.27;;;;;;;-1.13;100.00;103021.84;10378937;28;20449;-69
2023/03/01 05:29:16;;;;;;;27.33;21.98;;;;;;;-1.21;100.00;103022.22;10323915;28;20049;-70
2023/03/01 05:34:17;;;;;;;30.88;23.23;;;;;;;-1.34;100.00;103013.06;10387908;28;20453;-69
2023/03/01 05:39:17;;;;;;;34.35;25.63;;;;;;;-1.48;100.00;103010.16;10378016;28;20033;-70
2023/03/01 05:44:18;;;;;;;32.40;23.58;;;;;;;-1.63;100.00;103006.34;10376113;28;20137;-69
2023/03/01 05:49:18;;;;;;;28.98;22.65;;;;;;;-1.76;100.00;102990.09;10360918;28;20061;-70
2023/03/01 05:54:20;;;;;;;34.30;24.00;;;;;;;-1.95;100.00;102992.66;10376562;28;20046;-70
2023/03/01 05:59:20;;;;;;;37.13;23.88;;;;;;;-2.09;100.00;102997.69;10377279;28;20025;-69
2023/03/01 06:04:20;;;;;;;31.15;24.05;;;;;;;-2.17;100.00;103000.69;10376725;28;20045;-69
2023/03/01 06:09:21;;;;;;;24.60;19.58;;;;;;;-2.24;100.00;102995.66;10376997;28;20518;-69
2023/03/01 06:14:21;;;;;;;26.52;20.58;;;;;;;-2.34;100.00;102996.03;10376663;28;20045;-69
2023/03/01 06:19:22;;;;;;;30.60;22.67;;;;;;;-2.28;100.00;102999.38;10326382;28;20148;-69
2023/03/01 06:24:22;;;;;;;45.83;25.02;;;;;;;-2.23;100.00;102994.75;10393784;28;20542;-69
2023/03/01 06:29:23;;;;;;;39.10;25.30;;;;;;;-2.16;100.00;102999.75;10376240;28;20040;-69
2023/03/01 06:34:23;;;;;;;30.45;23.27;;;;;;;-2.15;100.00;103001.47;10375411;28;20065;-69
2023/03/01 06:39:24;;;;;;;41.50;25.52;;;;;;;-2.21;100.00;103004.38;10375649;28;20393;-69
2023/03/01 06:44:24;;;;;;;31.77;23.27;;;;;;;-2.12;100.00;103000.47;10375639;28;20053;-69
2023/03/01 06:49:25;;;;;;;36.70;25.77;;;;;;;-1.73;100.00;103005.03;10357818;28;20475;-69
2023/03/01 06:54:27;;;;;;;43.53;26.05;;;;;;;-1.23;100.00;103007.25;10364981;28;20444;-69
2023/03/01 06:59:27;;;;;;;35.15;22.50;;;;;;;-0.43;100.00;102995.56;10375369;28;20095;-69
2023/03/01 07:04:30;;;;;;;39.67;29.35;;;;;;;0.22;100.00;102999.38;10374135;28;20168;-69
2023/03/01 07:09:31;;;;;;;47.63;31.80;;;;;;;1.13;100.00;102990.09;10374332;28;20061;-69
2023/03/01 07:14:31;;;;;;;46.80;33.22;;;;;;;1.78;100.00;102987.31;10373599;28;20048;-69
2023/03/01 07:19:32;;;;;;;48.20;33.83;;;;;;;2.39;100.00;102997.03;10356766;28;20022;-69
2023/03/01 07:24:32;;;;;;;58.97;42.25;;;;;;;2.88;100.00;102993.19;10363167;28;20034;-69
2023/03/01 07:29:33;;;;;;;63.80;41.60;;;;;;;3.56;100.00;102987.91;10375064;28;20038;-69
2023/03/01 07:34:33;;;;;;;67.40;48.03;;;;;;;3.93;100.00;102993.53;10373536;28;20169;-69
2023/03/01 07:39:33;;;;;;;76.18;55.60;;;;;;;3.94;100.00;103004.13;10356509;28;20034;-69
2023/03/01 07:44:34;;;;;;;78.55;54.42;;;;;;;4.40;100.00;103000.13;10389144;28;20041;-69
2023/03/01 07:49:34;;;;;;;83.97;60.33;;;;;;;4.65;100.00;103001.97;10372768;28;20330;-69
2023/03/01 07:54:35;;;;;;;91.53;62.53;;;;;;;4.85;100.00;103004.16;10378458;28;20030;-69
2023/03/01 07:59:35;;;;;;;74.18;56.85;;;;;;;4.83;100.00;102994.47;10374595;28;20030;-70
2023/03/01 08:04:36;;;;;;;59.05;43.13;;;;;;;4.88;100.00;102998.56;10373146;28;20038;-70
2023/03/01 08:09:37;;;;;;;47.47;39.10;;;;;;;5.12;100.00;103000.44;10377045;28;20054;-70
2023/03/01 08:14:37;;;;;;;34.55;24.33;;;;;;;5.24;100.00;102994.19;10381601;28;20448;-70
2023/03/01 08:19:38;;;;;;;27.92;21.67;;;;;;;5.64;100.00;102991.25;10381818;28;20121;-70
2023/03/01 08:24:38;;;;;;;24.77;18.73;;;;;;;5.98;100.00;102986.09;10381519;28;20061;-70
2023/03/01 08:29:39;;;;;;;24.67;19.13;;;;;;;6.11;100.00;102984.19;10381015;28;20176;-70
2023/03/01 08:34:39;;;;;;;18.95;16.25;;;;;;;6.24;100.00;102984.09;10378971;28;20038;-70
2023/03/01 08:39:39;;;;;;;25.27;16.58;;;;;;;6.59;100.00;102973.28;10379548;28;20037;-70
2023/03/01 08:44:40;;;;;;;18.95;16.38;;;;;;;7.10;100.00;102980.03;10379281;28;20500;-70
2023/03/01 08:49:40;;;;;;;18.15;15.77;;;;;;;7.74;100.00;102979.28;10379963;28;20038;-70
2023/03/01 08:54:40;;;;;;;15.88;14.27;;;;;;;8.16;100.00;102967.53;10381370;28;20095;-70
2023/03/01 08:59:41;;;;;;;15.85;12.70;;;;;;;8.44;100.00;102976.00;10380839;28;20121;-71
2023/03/01 09:04:41;;;;;;;18.25;11.25;;;;;;;8.23;100.00;102978.72;10379745;28;20049;-70
2023/03/01 09:09:42;;;;;;;13.73;10.68;;;;;;;8.62;100.00;102978.97;10361837;28;20119;-70
2023/03/01 09:14:42;;;;;;;15.13;11.75;;;;;;;8.92;100.00;102970.00;10379057;28;20115;-70
2023/03/01 09:19:43;;;;;;;12.48;9.10;;;;;;;9.37;100.00;102958.75;10377890;28;20038;-70
2023/03/01 09:24:43;;;;;;;13.00;8.63;;;;;;;9.63;100.00;102963.66;10380561;28;20382;-70
2023/03/01 09:29:44;;;;;;;15.10;8.77;;;;;;;9.65;100.00;102956.25;10378623;28;20037;-70
2023/03/01 09:40:10;;;;;;;9.20;6.68;;;;;;;9.24;100.00;102956.31;10378094;28;20532;-70
2023/03/01 09:45:11;;;;;;;9.65;6.88;;;;;;;9.23;100.00;102943.81;10378211;28;20461;-70
2023/03/01 09:50:19;;;;;;;8.05;5.93;;;;;;;9.51;100.00;102935.91;10360585;28;20117;-70
2023/03/01 09:55:29;;;;;;;6.43;5.93;;;;;;;9.73;100.00;102938.34;10377331;28;20107;-70
2023/03/01 10:00:37;;;;;;;6.90;5.90;;;;;;;10.04;99.12;102935.44;10376452;28;20026;-70
2023/03/01 10:05:57;;;;;;;6.95;6.03;;;;;;;10.81;100.00;102926.28;10359304;28;20540;-70
2023/03/01 10:10:57;;;;;;;6.07;5.03;;;;;;;10.58;91.00;102924.97;10375747;28;20053;-70
2023/03/01 10:16:20;;;;;;;5.85;5.13;;;;;;;10.81;95.81;102930.84;10343490;28;20133;-70
2023/03/01 10:21:21;;;;;;;17.98;6.13;;;;;;;10.28;80.88;102915.22;10376439;28;20069;-70
2023/03/01 10:26:49;;;;;;;6.53;5.70;;;;;;;10.28;74.42;102917.94;10358925;28;20135;-70
2023/03/01 10:31:50;;;;;;;9.20;6.00;;;;;;;9.99;67.43;102906.13;10375673;28;20041;-70
2023/03/01 10:36:52;;;;;;;16.33;5.35;;;;;;;10.51;81.58;102891.34;10358145;28;20034;-70
2023/03/01 10:41:52;;;;;;;8.10;5.78;;;;;;;10.64;61.52;102890.00;10358240;28;20037;-70
2023/03/01 10:46:59;;;;;;;6.10;5.05;;;;;;;10.57;77.25;102879.91;10376280;28;20370;-70
2023/03/01 10:52:11;;;;;;;6.22;4.82;;;;;;;11.13;69.96;102873.47;10378253;28;20120;-70
2023/03/01 10:57:33;;;;;;;6.40;5.07;;;;;;;10.81;63.01;102884.78;10374688;28;20029;-70
2023/03/01 11:02:36;;;;;;;6.72;5.93;;;;;;;10.60;55.65;102876.91;10373116;28;20176;-70
2023/03/01 11:07:56;;;;;;;5.95;5.30;;;;;;;10.43;69.91;102862.28;10373771;28;20493;-70
2023/03/01 11:13:15;;;;;;;8.90;5.45;;;;;;;10.95;72.00;102859.91;10374843;28;20425;-70
2023/03/01 11:18:19;;;;;;;7.97;5.65;;;;;;;11.40;71.70;102846.28;10376047;28;20493;-70
2023/03/01 11:23:19;;;;;;;7.38;4.57;;;;;;;10.67;57.98;102840.94;10374084;28;20066;-70
2023/03/01 11:28:20;;;;;;;6.47;5.60;;;;;;;10.79;68.14;102817.19;10357067;28;20110;-70
2023/03/01 11:33:33;;;;;;;8.13;5.70;;;;;;;11.77;81.59;102820.84;10372620;28;20112;-70
2023/03/01 11:38:36;;;;;;;5.07;4.68;;;;;;;11.81;73.53;102824.94;10357671;28;20034;-70
2023/03/01 11:44:01;;;;;;;10.02;7.13;;;;;;;11.08;56.22;102819.72;10372344;28;20402;-70
2023/03/01 11:49:33;;;;;;;12.13;8.90;;;;;;;10.71;69.85;102814.38;10365685;28;20132;-70
2023/03/01 11:55:01;;;;;;;9.27;8.13;;;;;;;10.61;76.34;102808.16;10369530;28;20076;-70
2023/03/01 12:00:23;;;;;;;11.60;7.40;;;;;;;11.06;69.62;102813.56;10359265;28;20474;-70
2023/03/01 12:05:37;;;;;;;14.23;8.40;;;;;;;11.27;75.28;102801.59;10372953;28;20033;-70
2023/03/01 12:11:06;;;;;;;11.07;9.48;;;;;;;11.90;80.19;102793.31;10372541;28;20486;-70
2023/03/01 12:16:40;;;;;;;11.25;9.88;;;;;;;11.85;80.11;102774.75;10371981;28;20481;-70
2023/03/01 12:21:58;;;;;;;15.20;10.40;;;;;;;11.92;83.48;102763.25;10371974;28;20030;-70
2023/03/01 12:27:10;;;;;;;;;;;;;;;12.57;96.82;102745.41;10372198;28;20101;-70
2023/03/01 12:32:28;;;;;;;10.77;7.65;;;;;;;12.12;76.14;102751.13;10371874;28;19913;-70
2023/03/01 12:37:29;;;;;;;11.25;8.35;;;;;;;11.84;72.44;102736.91;10371958;28;20038;-70
2023/03/01 12:42:32;;;;;;;10.30;9.13;;;;;;;11.99;81.15;102735.28;10373110;28;20113;-70
2023/03/01 12:47:58;;;;;;;11.88;9.10;;;;;;;12.24;79.70;102732.69;10377012;28;20088;-70
2023/03/01 12:52:58;;;;;;;14.48;9.30;;;;;;;11.88;76.85;102738.31;10373413;28;20040;-70
2023/03/01 12:58:05;;;;;;;9.60;8.02;;;;;;;11.82;78.97;102737.03;10378672;28;20034;-70
2023/03/01 13:03:33;;;;;;;11.98;9.40;;;;;;;10.83;68.80;102731.88;10379182;28;20083;-70
2023/03/01 13:08:39;;;;;;;11.85;8.45;;;;;;;10.40;67.94;102736.16;10379684;28;20062;-70
2023/03/01 13:13:39;;;;;;;9.27;8.38;;;;;;;10.11;69.67;102746.22;10346061;28;20508;-70
2023/03/01 13:18:40;;;;;;;13.77;9.27;;;;;;;10.21;74.77;102736.19;10381693;28;20072;-71
2023/03/01 13:23:41;;;;;;;12.82;10.25;;;;;;;10.44;78.35;102724.00;10377774;28;20045;-70
2023/03/01 13:28:44;;;;;;;19.25;11.27;;;;;;;10.73;83.36;102714.84;10377530;28;20096;-70
2023/03/01 13:33:51;;;;;;;10.88;8.68;;;;;;;10.62;71.77;102712.34;10376652;28;20082;-70
2023/03/01 13:38:57;;;;;;;7.30;5.53;;;;;;;9.66;63.95;102703.69;10378203;28;20533;-70
2023/03/01 13:43:58;;;;;;;8.75;5.80;;;;;;;9.42;57.98;102696.06;10379534;28;20436;-70
2023/03/01 13:48:58;;;;;;;5.30;4.13;;;;;;;9.20;60.06;102672.91;10380141;28;20048;-70
2023/03/01 13:53:58;;;;;;;6.25;4.05;;;;;;;8.97;57.70;102670.53;10344114;28;20547;-70
2023/03/01 13:59:20;;;;;;;6.47;5.82;;;;;;;9.05;61.87;102673.34;10376283;28;20137;-70
2023/03/01 14:04:22;;;;;;;5.90;5.38;;;;;;;9.32;74.51;102667.19;10377448;28;20069;-70
2023/03/01 14:09:25;;;;;;;5.95;5.10;;;;;;;9.69;68.62;102660.09;10375674;28;20065;-70
2023/03/01 14:14:53;;;;;;;6.45;5.82;;;;;;;9.40;66.16;102647.53;10376422;28;20034;-70
2023/03/01 14:19:58;;;;;;;8.30;5.90;;;;;;;9.08;64.29;102646.03;10375290;28;20132;-70
2023/03/01 14:25:05;;;;;;;7.88;6.30;;;;;;;8.96;69.08;102635.53;10375508;28;20025;-70
2023/03/01 14:30:19;;;;;;;9.25;5.05;;;;;;;9.25;73.55;102621.94;10359282;28;20030;-70
2023/03/01 14:35:22;;;;;;;6.93;5.43;;;;;;;9.12;73.64;102613.31;10358415;28;20048;-70
2023/03/01 14:40:31;;;;;;;6.03;5.25;;;;;;;8.95;68.21;102596.84;10374934;28;20557;-70
2023/03/01 14:45:31;;;;;;;6.35;5.10;;;;;;;9.07;76.26;102593.00;10376841;28;20034;-70
2023/03/01 14:50:33;;;;;;;6.82;4.75;;;;;;;8.89;69.94;102586.63;10364055;28;20053;-70
2023/03/01 14:55:35;;;;;;;7.53;4.40;;;;;;;8.87;73.18;102579.66;10375638;28;20524;-70
2023/03/01 15:00:36;;;;;;;7.75;5.18;;;;;;;8.69;78.65;102582.25;10373856;28;20041;-70
2023/03/01 15:05:36;;;;;;;13.45;5.43;;;;;;;8.61;77.56;102581.16;10340996;28;20524;-70
2023/03/01 15:10:37;;;;;;;6.82;6.13;;;;;;;8.61;82.36;102578.44;10356864;28;20132;-70
2023/03/01 15:15:39;;;;;;;7.32;6.18;;;;;;;8.53;76.18;102570.19;10357182;28;20061;-70
2023/03/01 15:20:39;;;;;;;4.88;4.15;;;;;;;8.24;78.50;102577.41;10360954;28;20038;-70
2023/03/01 15:25:44;;;;;;;12.02;5.05;;;;;;;7.53;74.12;102566.75;10373393;28;20037;-70
2023/03/01 15:30:45;;;;;;;6.50;4.82;;;;;;;7.43;80.72;102559.50;10357297;28;20040;-70
2023/03/01 15:35:48;;;;;;;6.10;4.22;;;;;;;7.16;80.20;102561.91;10372572;28;20029;-70
2023/03/01 15:40:51;;;;;;;7.38;5.63;;;;;;;6.79;76.08;102545.41;10374212;28;20034;-70
2023/03/01 15:45:58;;;;;;;7.45;6.43;;;;;;;6.50;74.39;102554.97;10356454;28;20088;-70
2023/03/01 15:50:58;;;;;;;;;;;;;;;6.50;79.45;102546.91;10379103;28;20378;-70
2023/03/01 15:55:58;;;;;;;8.33;4.13;;;;;;;6.40;82.26;102556.75;10389727;28;19917;-70
2023/03/01 16:00:59;;;;;;;5.07;4.35;;;;;;;6.24;79.06;102554.50;10356299;28;20370;-70
2023/03/01 16:06:00;;;;;;;5.32;4.80;;;;;;;6.12;78.40;102549.28;10356326;28;20543;-70
2023/03/01 16:11:04;;;;;;;8.27;6.55;;;;;;;6.01;77.90;102542.13;10373370;28;20053;-70
2023/03/01 16:16:05;;;;;;;5.78;5.20;;;;;;;5.92;74.45;102541.00;10355903;28;20064;-70
2023/03/01 16:21:06;;;;;;;5.85;5.28;;;;;;;5.85;75.11;102541.66;10372168;28;20512;-70
2023/03/01 16:26:06;;;;;;;5.85;4.68;;;;;;;5.81;77.20;102541.91;10372180;28;20393;-70
2023/03/01 16:31:06;;;;;;;7.43;5.85;;;;;;;5.71;78.42;102534.69;10376229;28;20073;-70
2023/03/01 16:36:10;;;;;;;11.05;6.00;;;;;;;5.63;76.16;102540.72;10363222;28;20057;-70
2023/03/01 16:41:12;;;;;;;6.43;5.75;;;;;;;5.56;78.57;102520.69;10363327;28;20069;-70
2023/03/01 16:46:15;;;;;;;14.00;6.90;;;;;;;5.52;83.72;102524.59;10363301;28;20034;-70
2023/03/01 16:51:15;;;;;;;8.52;6.10;;;;;;;5.38;86.66;102523.03;10362773;28;20490;-70
2023/03/01 16:56:16;;;;;;;10.77;7.25;;;;;;;5.26;87.81;102518.66;10385088;28;20050;-70
2023/03/01 17:01:18;;;;;;;8.10;7.25;;;;;;;5.13;89.64;102518.78;10379307;28;20034;-70
2023/03/01 17:06:24;;;;;;;12.00;7.82;;;;;;;5.01;89.21;102527.78;10362405;28;20041;-70
2023/03/01 17:11:25;;;;;;;11.57;7.50;;;;;;;4.86;90.23;102519.97;10379871;28;20061;-70
2023/03/01 17:16:26;;;;;;;10.70;8.10;;;;;;;4.69;92.20;102520.47;10377579;28;20030;-70
2023/03/01 17:21:27;;;;;;;8.18;6.65;;;;;;;4.57;92.53;102532.13;10379359;28;20505;-70
2023/03/01 17:26:30;;;;;;;16.17;7.65;;;;;;;4.46;94.11;102529.41;10381366;28;20096;-70
2023/03/01 17:31:31;;;;;;;11.15;7.63;;;;;;;4.37;94.93;102526.47;10382866;28;20036;-70
2023/03/01 17:36:40;;;;;;;6.55;5.95;;;;;;;4.32;94.53;102543.88;10360680;28;20082;-70
2023/03/01 17:41:41;;;;;;;7.82;6.22;;;;;;;4.23;92.18;102544.56;10377548;28;20037;-70
2023/03/01 17:46:41;;;;;;;9.25;7.05;;;;;;;4.24;92.25;102549.81;10378891;28;20389;-70
2023/03/01 17:51:43;;;;;;;12.00;7.30;;;;;;;4.12;91.00;102545.41;10378025;28;20038;-70
2023/03/01 17:56:43;;;;;;;11.80;6.82;;;;;;;3.94;92.56;102548.47;10378314;28;20532;-70
2023/03/01 18:01:44;;;;;;;9.50;5.95;;;;;;;3.91;94.12;102561.22;10381239;28;20045;-70
2023/03/01 18:06:44;;;;;;;9.43;6.68;;;;;;;3.85;94.02;102567.91;10375775;28;20083;-70
2023/03/01 18:11:44;;;;;;;9.07;6.93;;;;;;;3.76;93.96;102568.56;10359528;28;20065;-70
2023/03/01 18:16:45;;;;;;;11.90;5.70;;;;;;;3.76;93.73;102576.59;10376968;28;20125;-70
2023/03/01 18:21:45;;;;;;;8.05;6.28;;;;;;;3.73;94.94;102574.16;10377063;28;20064;-70
2023/03/01 18:26:46;;;;;;;14.98;8.02;;;;;;;3.68;92.46;102570.97;10375406;28;20034;-71
2023/03/01 18:31:46;;;;;;;10.52;7.63;;;;;;;3.71;92.38;102578.78;10376665;28;20058;-70
2023/03/01 18:36:46;;;;;;;7.07;6.15;;;;;;;3.69;92.21;102572.66;10374419;28;20100;-70
2023/03/01 18:41:47;;;;;;;12.70;6.88;;;;;;;3.66;92.45;102568.38;10375813;28;20037;-70
2023/03/01 18:46:47;;;;;;;10.05;6.13;;;;;;;3.60;93.08;102573.31;10358360;28;20052;-70
2023/03/01 18:51:49;;;;;;;12.68;7.70;;;;;;;3.58;92.28;102575.28;10375380;28;20536;-70
2023/03/01 18:56:50;;;;;;;11.45;8.10;;;;;;;3.47;92.16;102576.03;10375523;28;20392;-70
2023/03/01 19:01:50;;;;;;;12.43;8.10;;;;;;;3.27;93.62;102580.16;10375363;28;20101;-70
2023/03/01 19:06:50;;;;;;;10.35;7.07;;;;;;;3.25;95.79;102572.22;10378253;28;20034;-70
2023/03/01 19:11:51;;;;;;;8.75;7.13;;;;;;;3.11;96.46;102572.34;10376158;28;20041;-70
2023/03/01 19:16:52;;;;;;;13.68;8.00;;;;;;;3.01;95.12;102577.47;10375241;28;20092;-70
2023/03/01 19:21:52;;;;;;;13.68;8.48;;;;;;;2.79;94.13;102582.59;10374757;28;20535;-70
2023/03/01 19:26:55;;;;;;;10.45;7.60;;;;;;;2.66;96.32;102585.25;10373518;28;20405;-70
2023/03/01 19:31:56;;;;;;;12.52;8.60;;;;;;;2.71;98.38;102575.13;10373748;28;20034;-70
2023/03/01 19:36:56;;;;;;;11.38;8.80;;;;;;;2.63;98.00;102577.44;10356985;28;20046;-70
2023/03/01 19:41:57;;;;;;;11.20;8.75;;;;;;;2.65;98.77;102571.97;10380379;28;20026;-71
2023/03/01 19:46:57;;;;;;;8.43;7.55;;;;;;;2.55;100.00;102569.97;10373987;28;20066;-70
2023/03/01 19:51:57;;;;;;;10.27;8.00;;;;;;;2.55;100.00;102564.59;10373401;28;20069;-70
2023/03/01 19:56:59;;;;;;;13.95;9.30;;;;;;;2.53;100.00;102555.81;10373715;28;20058;-70
2023/03/01 20:01:59;;;;;;;27.80;10.25;;;;;;;2.52;100.00;102562.13;10356452;28;20044;-70
2023/03/01 20:07:00;;;;;;;13.02;10.20;;;;;;;2.53;100.00;102561.16;10393965;28;20132;-70
2023/03/01 20:12:00;;;;;;;9.27;8.30;;;;;;;2.47;100.00;102563.41;10393066;28;20049;-70
2023/03/01 20:17:00;;;;;;;15.98;9.48;;;;;;;2.37;100.00;102552.47;10387730;28;20494;-71
2023/03/01 20:22:02;;;;;;;13.52;10.13;;;;;;;2.34;100.00;102552.69;10390076;28;20032;-70
2023/03/01 20:27:02;;;;;;;13.00;9.57;;;;;;;2.38;100.00;102556.00;10389959;28;20508;-70
2023/03/01 20:32:03;;;;;;;14.30;10.52;;;;;;;2.37;100.00;102565.84;10379317;28;20053;-70
2023/03/01 20:37:03;;;;;;;11.20;9.48;;;;;;;2.31;100.00;102560.91;10388627;28;20037;-70
2023/03/01 20:42:04;;;;;;;12.68;8.73;;;;;;;2.25;100.00;102566.66;10419536;28;20045;-70
2023/03/01 20:47:04;;;;;;;13.20;9.82;;;;;;;2.22;100.00;102570.38;10419861;28;20132;-70
2023/03/01 20:52:05;;;;;;;11.70;8.40;;;;;;;2.15;100.00;102571.75;10436532;28;20046;-70
2023/03/01 20:57:05;;;;;;;11.88;9.82;;;;;;;2.18;100.00;102565.38;10419296;28;20029;-70
2023/03/01 21:02:06;;;;;;;13.60;10.05;;;;;;;2.19;100.00;102577.75;10420671;28;20029;-72
2023/03/01 21:07:06;;;;;;;11.18;9.18;;;;;;;2.06;100.00;102591.06;10418284;28;20041;-71
2023/03/01 21:12:07;;;;;;;15.40;9.52;;;;;;;1.91;100.00;102595.59;10419106;28;20049;-70
2023/03/01 21:17:14;;;;;;;14.77;9.43;;;;;;;1.73;100.00;102597.66;10419211;28;20025;-70
2023/03/01 21:22:15;;;;;;;15.15;11.15;;;;;;;1.71;100.00;102596.88;10420818;28;20025;-70
2023/03/01 21:27:15;;;;;;;22.63;11.40;;;;;;;1.80;100.00;102593.63;10421572;28;20086;-70
2023/03/01 21:32:16;;;;;;;18.98;11.07;;;;;;;1.69;100.00;102597.94;10418727;28;20038;-70
2023/03/01 21:37:18;;;;;;;12.32;11.00;;;;;;;1.61;100.00;102604.63;10418832;28;20044;-70
2023/03/01 21:42:18;;;;;;;15.38;11.80;;;;;;;1.50;100.00;102600.91;10419475;28;20044;-70
2023/03/01 21:47:18;;;;;;;17.27;12.30;;;;;;;1.55;100.00;102605.00;10419101;28;20056;-70
2023/03/01 21:52:19;;;;;;;25.40;12.93;;;;;;;1.45;100.00;102609.22;10418465;28;20038;-71
2023/03/01 21:57:20;;;;;;;15.95;12.13;;;;;;;1.35;100.00;102598.25;10424193;28;20037;-70
2023/03/01 22:02:20;;;;;;;17.65;12.77;;;;;;;1.35;100.00;102608.09;10417959;28;20037;-71
2023/03/01 22:07:20;;;;;;;20.83;12.82;;;;;;;1.30;100.00;102613.69;10400045;28;20041;-70
2023/03/01 22:12:21;;;;;;;18.92;12.15;;;;;;;1.15;100.00;102612.84;10417381;28;20033;-71
2023/03/01 22:17:21;;;;;;;16.48;13.27;;;;;;;1.08;100.00;102615.97;10418469;28;20619;-71
2023/03/01 22:22:21;;;;;;;20.83;14.88;;;;;;;1.06;100.00;102604.53;10416519;28;20038;-71
2023/03/01 22:27:22;;;;;;;16.35;13.43;;;;;;;1.10;100.00;102595.41;10417019;28;20041;-71
2023/03/01 22:32:22;;;;;;;15.98;13.40;;;;;;;1.10;100.00;102587.38;10421823;28;20481;-71
2023/03/01 22:37:23;;;;;;;19.48;12.98;;;;;;;1.07;100.00;102583.09;10418110;28;20088;-70
2023/03/01 22:42:23;;;;;;;21.15;13.73;;;;;;;0.92;100.00;102576.03;10415628;28;20608;-70
2023/03/01 22:47:24;;;;;;;18.10;12.85;;;;;;;0.82;100.00;102586.41;10416788;28;20049;-71
2023/03/01 22:52:24;;;;;;;24.48;13.68;;;;;;;0.78;100.00;102590.22;10416667;28;20113;-71
2023/03/01 22:57:24;;;;;;;23.55;14.82;;;;;;;0.75;100.00;102581.53;10415297;28;20064;-71